Terminal Aerodrome Forecast
Issued by NWS Omaha/Valley, NE

Home | Current Version | Previous Version | Text Only | Print | Product List | Glossary On
Versions: 1 2 3 4 5 6 7 8 9 10 11 12 13 14 15 16 17 18 19 20 21 22 23 24 25 26 27 28
000
FTUS43 KOAX 242320
TAFOMA
TAF
KOMA 242320Z 2500/2524 15015G22KT P6SM BKN250
     FM250200 17013KT P6SM BKN250
     FM251500 21013G22KT P6SM BKN150
     FM251900 27012G21KT P6SM BKN150
      TEMPO 2521/2524 31009KT SCT150=

USA.gov is the U.S. government's official web portal to all federal, state and local government web resources and services.